Time;durP1;ratioP1;P1;durP2;ratioP2;P2;SDS_P1;SDS_P2;PMS_P1;PMS_P2;Temp;Humidity;BMP_temperature;BMP_pressure;BME280_temperature;BME280_humidity;BME280_pressure;Samples;Min_cycle;Max_cycle;Signal;HPM_P1;HPM_P2
2023/04/07 00:00:32;;;;;;;19.02;10.43;;;;;;;8.43;52.64;100905.56;4934692;29;20070;-73
2023/04/07 00:03:01;;;;;;;19.42;11.57;;;;;;;8.50;53.18;100908.88;4934897;29;20058;-73
2023/04/07 00:05:29;;;;;;;21.63;10.65;;;;;;;8.48;52.92;100905.59;4933969;29;20052;-73
2023/04/07 00:07:56;;;;;;;22.23;11.65;;;;;;;8.54;52.48;100904.59;4933092;29;20051;-73
2023/04/07 00:10:24;;;;;;;17.05;10.60;;;;;;;8.60;51.64;100903.56;4933118;29;20067;-73
2023/04/07 00:12:52;;;;;;;15.80;10.68;;;;;;;8.65;52.48;100899.25;4933374;29;20058;-74
2023/04/07 00:15:20;;;;;;;21.88;11.73;;;;;;;8.68;52.60;100894.09;4934008;29;20055;-73
2023/04/07 00:17:48;;;;;;;20.02;11.45;;;;;;;8.71;51.92;100892.75;4933333;29;20056;-73
2023/04/07 00:20:16;;;;;;;18.58;10.88;;;;;;;8.76;51.27;100895.53;4934041;29;21581;-73
2023/04/07 00:22:45;;;;;;;16.80;11.23;;;;;;;8.82;51.73;100889.03;4927478;29;20562;-73
2023/04/07 00:25:12;;;;;;;18.50;10.88;;;;;;;8.74;53.16;100892.22;4923511;29;20055;-73
2023/04/07 00:27:40;;;;;;;17.83;11.10;;;;;;;8.78;52.01;100890.63;4932894;29;20051;-73
2023/04/07 00:30:08;;;;;;;19.92;11.77;;;;;;;8.72;51.89;100892.50;4932736;29;20043;-73
2023/04/07 00:32:36;;;;;;;20.05;11.70;;;;;;;8.75;52.05;100888.41;4917413;29;20071;-73
2023/04/07 00:35:05;;;;;;;17.77;11.10;;;;;;;8.78;52.04;100887.06;4923484;29;20052;-73
2023/04/07 00:37:32;;;;;;;19.75;10.73;;;;;;;8.74;52.56;100886.75;4932855;29;20055;-73
2023/04/07 00:40:00;;;;;;;17.58;11.10;;;;;;;8.64;53.36;100881.25;4937157;29;20047;-73
2023/04/07 00:42:28;;;;;;;19.15;11.27;;;;;;;8.54;52.88;100890.97;4920264;29;20067;-73
2023/04/07 00:44:55;;;;;;;17.40;10.70;;;;;;;8.66;52.01;100882.59;4919223;29;20509;-73
2023/04/07 00:47:23;;;;;;;20.35;10.82;;;;;;;8.63;52.65;100895.94;4928181;29;20410;-74
2023/04/07 00:49:51;;;;;;;18.77;10.68;;;;;;;8.75;52.16;100885.69;4936935;29;20055;-73
2023/04/07 00:52:26;;;;;;;17.33;10.27;;;;;;;8.81;51.24;100887.38;4923247;29;20521;-73
2023/04/07 00:54:54;;;;;;;19.23;10.63;;;;;;;8.80;52.70;100884.91;4924775;29;20055;-73
2023/04/07 00:57:22;;;;;;;18.10;10.77;;;;;;;8.81;52.67;100892.03;4936302;29;20051;-74
2023/04/07 00:59:51;;;;;;;18.90;11.13;;;;;;;8.82;52.07;100899.13;4936306;29;20044;-73
2023/04/07 01:02:37;;;;;;;19.48;11.15;;;;;;;8.80;52.37;100882.19;4930185;29;20430;-73
2023/04/07 01:05:22;;;;;;;18.98;10.38;;;;;;;8.72;53.95;100878.03;4922071;29;20067;-74
2023/04/07 01:07:57;;;;;;;18.98;10.85;;;;;;;8.66;53.93;100873.59;4917391;29;20059;-74
2023/04/07 01:10:40;;;;;;;20.58;11.50;;;;;;;8.70;52.75;100872.81;4932117;29;20052;-73
2023/04/07 01:13:17;;;;;;;19.73;11.75;;;;;;;8.87;52.35;100874.59;4936927;29;20054;-73
2023/04/07 01:15:48;;;;;;;22.40;11.27;;;;;;;8.96;51.98;100872.22;4936506;29;20059;-73
2023/04/07 01:18:23;;;;;;;19.13;10.60;;;;;;;8.84;53.81;100866.91;4936596;29;20371;-73
2023/04/07 01:20:55;;;;;;;19.45;11.23;;;;;;;8.80;52.97;100869.34;4935884;29;20044;-73
2023/04/07 01:23:52;;;;;;;18.13;10.65;;;;;;;8.76;52.90;100870.97;4937417;29;20043;-73
2023/04/07 01:26:22;;;;;;;15.80;9.75;;;;;;;8.75;53.38;100872.03;4935781;29;20525;-73
2023/04/07 01:29:10;;;;;;;15.57;10.43;;;;;;;8.79;53.67;100861.44;4937666;29;20071;-73
2023/04/07 01:31:40;;;;;;;18.92;9.68;;;;;;;8.97;51.88;100868.38;4936037;29;20062;-74
2023/04/07 01:34:12;;;;;;;17.85;9.68;;;;;;;8.94;51.26;100858.81;4937197;29;20043;-73
2023/04/07 01:36:41;;;;;;;16.90;10.50;;;;;;;8.96;52.13;100866.75;4935994;29;20055;-73
2023/04/07 01:39:11;;;;;;;17.67;10.18;;;;;;;8.96;52.42;100874.94;4935453;29;20052;-73
2023/04/07 01:41:40;;;;;;;20.73;9.80;;;;;;;8.94;51.43;100867.00;4935553;29;20055;-73
2023/04/07 01:44:09;;;;;;;20.33;9.85;;;;;;;8.95;52.62;100870.56;4936208;29;20047;-73
2023/04/07 01:46:37;;;;;;;21.10;9.77;;;;;;;9.01;50.54;100874.97;4936287;29;20525;-73
2023/04/07 01:49:06;;;;;;;17.92;9.77;;;;;;;8.96;51.86;100874.94;4936373;29;20062;-73
2023/04/07 01:51:34;;;;;;;16.55;9.13;;;;;;;8.89;51.31;100866.97;4937214;29;20056;-73
2023/04/07 01:54:04;;;;;;;17.02;10.32;;;;;;;8.69;51.84;100864.88;4936271;29;20040;-73
2023/04/07 01:56:32;;;;;;;14.60;9.30;;;;;;;8.89;51.94;100866.16;4935629;29;20054;-73
2023/04/07 01:59:03;;;;;;;17.77;9.07;;;;;;;9.00;51.50;100863.22;4936151;29;20074;-73
2023/04/07 02:01:31;;;;;;;16.10;10.05;;;;;;;8.89;52.22;100866.16;4935187;29;20054;-73
2023/04/07 02:04:15;;;;;;;17.80;9.63;;;;;;;9.08;51.72;100867.38;4935183;29;20051;-73
2023/04/07 02:06:54;;;;;;;15.45;9.32;;;;;;;9.21;51.16;100863.38;4936078;29;20039;-74
2023/04/07 02:09:32;;;;;;;21.88;10.20;;;;;;;9.07;52.50;100868.47;4934932;29;20047;-73
2023/04/07 02:12:02;;;;;;;16.52;10.20;;;;;;;8.97;52.50;100862.94;4935398;29;20422;-73
2023/04/07 02:14:35;;;;;;;;;;;;;;;8.89;53.70;100866.16;4936127;29;20492;-73
2023/04/07 02:17:08;;;;;;;21.58;9.80;;;;;;;8.80;53.52;100866.63;4935483;29;19927;-73
2023/04/07 02:19:36;;;;;;;16.70;9.45;;;;;;;8.79;53.18;100856.00;4936274;29;20063;-73
2023/04/07 02:22:08;;;;;;;13.98;9.13;;;;;;;8.71;52.97;100857.28;4936490;29;20077;-73
2023/04/07 02:24:36;;;;;;;16.55;10.30;;;;;;;8.68;55.32;100853.16;4934933;29;20060;-73
2023/04/07 02:27:04;;;;;;;15.15;9.05;;;;;;;8.69;53.91;100854.81;4935214;29;20051;-73
2023/04/07 02:29:31;;;;;;;16.75;9.48;;;;;;;8.70;53.85;100852.91;4936372;29;20502;-73
2023/04/07 02:31:59;;;;;;;16.70;10.00;;;;;;;8.79;53.39;100859.53;4936429;29;20054;-73
2023/04/07 02:34:29;;;;;;;14.82;9.27;;;;;;;8.88;51.93;100857.13;4936523;29;20055;-73
2023/04/07 02:36:57;;;;;;;17.52;9.00;;;;;;;8.83;52.82;100855.19;4936361;29;20067;-72
2023/04/07 02:39:25;;;;;;;14.90;8.57;;;;;;;8.76;52.02;100853.75;4936352;29;20064;-73
2023/04/07 02:41:52;;;;;;;20.02;9.20;;;;;;;8.71;52.82;100858.09;4936328;29;20402;-73
2023/04/07 02:44:21;;;;;;;18.05;9.27;;;;;;;8.77;51.28;100858.97;4933709;29;20063;-73
2023/04/07 02:46:48;;;;;;;14.15;8.57;;;;;;;8.73;51.95;100861.41;4934443;29;20051;-73
2023/04/07 02:49:16;;;;;;;18.50;8.95;;;;;;;8.71;51.97;100854.56;4935856;29;20055;-73
2023/04/07 02:51:45;;;;;;;14.48;9.23;;;;;;;8.73;54.04;100861.41;4935780;29;20402;-73
2023/04/07 02:54:13;;;;;;;15.43;8.57;;;;;;;8.46;54.18;100861.41;4934021;29;20055;-73
2023/04/07 02:56:41;;;;;;;17.27;8.68;;;;;;;8.45;53.29;100855.13;4918170;29;20138;-73
2023/04/07 02:59:09;;;;;;;15.50;8.23;;;;;;;8.38;52.76;100865.44;4936041;29;20047;-73
2023/04/07 03:01:41;;;;;;;13.95;9.38;;;;;;;8.35;53.34;100857.75;4933545;29;20062;-73
2023/04/07 03:04:09;;;;;;;18.73;9.30;;;;;;;8.30;53.37;100858.53;4934503;29;20478;-73
2023/04/07 03:06:37;;;;;;;15.27;8.75;;;;;;;8.25;54.05;100844.84;4934503;29;20048;-73
2023/04/07 03:09:12;;;;;;;15.50;9.07;;;;;;;8.19;54.72;100848.59;4934661;29;20431;-73
2023/04/07 03:11:41;;;;;;;17.92;9.65;;;;;;;8.12;54.58;100845.25;4935279;29;20410;-73
2023/04/07 03:14:09;;;;;;;16.33;10.32;;;;;;;8.09;55.49;100848.47;4934231;29;20058;-72
2023/04/07 03:16:44;;;;;;;17.60;9.68;;;;;;;8.11;55.50;100840.91;4933717;29;20062;-73
2023/04/07 03:19:13;;;;;;;17.45;9.93;;;;;;;8.04;56.53;100852.00;4902829;29;20055;-73
2023/04/07 03:21:44;;;;;;;17.45;9.98;;;;;;;7.93;56.76;100849.13;4919064;29;20051;-73
2023/04/07 03:24:12;;;;;;;19.17;10.15;;;;;;;7.89;56.64;100858.09;4935536;29;20495;-73
2023/04/07 03:26:40;;;;;;;16.30;10.02;;;;;;;7.71;57.50;100860.06;4917939;29;20388;-73
2023/04/07 03:29:18;;;;;;;16.77;10.10;;;;;;;7.63;58.35;100863.25;4933653;29;20545;-73
2023/04/07 03:31:46;;;;;;;17.33;9.75;;;;;;;7.56;60.11;100866.13;4935356;29;20058;-73
2023/04/07 03:34:16;;;;;;;16.98;9.45;;;;;;;7.51;59.71;100866.06;4934244;29;20058;-73
2023/04/07 03:36:44;;;;;;;19.50;10.55;;;;;;;7.44;60.06;100849.94;4935173;29;20036;-73
2023/04/07 03:39:12;;;;;;;17.05;9.88;;;;;;;7.40;58.82;100855.03;4933983;29;20542;-73
2023/04/07 03:41:40;;;;;;;17.45;10.25;;;;;;;7.39;60.43;100847.13;4934988;29;20698;-72
2023/04/07 03:44:10;;;;;;;16.95;10.13;;;;;;;7.37;59.91;100844.66;4933671;29;20051;-73
2023/04/07 03:46:39;;;;;;;16.75;10.05;;;;;;;7.35;59.20;100840.53;4917726;29;20052;-73
2023/04/07 03:49:07;;;;;;;18.05;10.35;;;;;;;7.40;59.62;100843.34;4935125;29;20379;-72
2023/04/07 03:51:35;;;;;;;19.33;9.27;;;;;;;7.39;58.27;100847.13;4935311;29;20048;-73
2023/04/07 03:54:08;;;;;;;17.58;9.65;;;;;;;7.38;59.25;100853.66;4939515;29;20410;-73
2023/04/07 03:56:40;;;;;;;18.02;10.80;;;;;;;7.40;58.66;100849.59;4939462;29;20059;-73
2023/04/07 03:59:08;;;;;;;16.98;9.38;;;;;;;7.38;60.12;100849.03;4933441;29;20064;-73
2023/04/07 04:01:44;;;;;;;14.75;9.27;;;;;;;7.22;60.35;100842.56;4933832;29;20065;-73
2023/04/07 04:04:15;;;;;;;15.13;10.13;;;;;;;7.20;59.70;100844.72;4933363;29;20066;-73
2023/04/07 04:06:43;;;;;;;17.90;10.27;;;;;;;7.22;59.11;100842.56;4933306;29;20121;-73
2023/04/07 04:09:34;;;;;;;18.80;10.80;;;;;;;7.26;59.28;100846.44;4934757;29;20372;-73
2023/04/07 04:12:02;;;;;;;19.23;9.98;;;;;;;7.21;60.41;100842.78;4917593;29;20051;-72
2023/04/07 04:14:31;;;;;;;17.40;10.68;;;;;;;7.20;60.12;100844.72;4932875;29;20058;-73
2023/04/07 04:17:01;;;;;;;16.20;10.23;;;;;;;7.30;59.91;100848.63;4933318;29;20055;-73
2023/04/07 04:19:37;;;;;;;19.67;10.85;;;;;;;7.13;61.31;100838.59;4933217;29;20396;-73
2023/04/07 04:22:13;;;;;;;20.33;10.50;;;;;;;7.05;61.13;100847.19;4930349;29;20048;-73
2023/04/07 04:24:49;;;;;;;19.88;11.00;;;;;;;6.99;60.77;100846.28;4927165;29;20051;-73
2023/04/07 04:27:17;;;;;;;17.30;10.45;;;;;;;6.98;62.12;100840.03;4933642;29;20055;-73
2023/04/07 04:29:50;;;;;;;19.60;9.77;;;;;;;6.89;62.27;100844.22;4917834;29;20079;-73
2023/04/07 04:32:25;;;;;;;16.95;9.80;;;;;;;6.82;62.80;100839.00;4932485;29;20518;-73
2023/04/07 04:34:53;;;;;;;18.55;10.63;;;;;;;6.77;62.76;100848.94;4932348;29;20522;-73
2023/04/07 04:37:22;;;;;;;21.08;10.45;;;;;;;6.74;63.21;100852.19;4933117;29;20055;-72
2023/04/07 04:39:50;;;;;;;18.90;10.20;;;;;;;6.72;62.81;100849.69;4933479;29;20044;-73
2023/04/07 04:42:21;;;;;;;19.13;10.88;;;;;;;6.76;62.47;100844.59;4918059;29;20693;-72
2023/04/07 04:44:50;;;;;;;18.27;10.70;;;;;;;6.86;61.37;100839.31;4932257;29;20051;-73
2023/04/07 04:47:18;;;;;;;18.02;10.60;;;;;;;6.90;61.75;100840.47;4917649;29;20043;-73
2023/04/07 04:49:46;;;;;;;20.05;11.23;;;;;;;6.92;61.46;100841.03;4917603;29;20044;-72
2023/04/07 04:52:14;;;;;;;18.55;10.68;;;;;;;6.88;64.74;100839.88;4933271;29;20074;-72
2023/04/07 04:54:46;;;;;;;17.63;10.50;;;;;;;6.85;62.12;100848.56;4916810;29;20406;-72
2023/04/07 04:57:14;;;;;;;21.27;10.88;;;;;;;6.82;63.35;100852.59;4933119;29;20376;-72
2023/04/07 04:59:43;;;;;;;20.13;10.77;;;;;;;6.71;62.64;100854.28;4933156;29;20418;-73
2023/04/07 05:02:11;;;;;;;18.20;10.35;;;;;;;6.69;63.29;100853.72;4933258;29;20048;-73
2023/04/07 05:04:39;;;;;;;19.05;10.38;;;;;;;6.74;62.28;100852.97;4932499;29;20055;-73
2023/04/07 05:07:21;;;;;;;19.45;10.85;;;;;;;6.71;63.51;100856.22;4933243;29;20048;-73
2023/04/07 05:09:50;;;;;;;17.85;10.93;;;;;;;6.70;63.29;100858.09;4932759;29;20048;-72
2023/04/07 05:12:19;;;;;;;22.98;11.25;;;;;;;6.73;63.12;100856.78;4931509;29;20048;-72
2023/04/07 05:14:51;;;;;;;20.80;10.88;;;;;;;6.73;63.58;100854.06;4931943;29;20039;-73
2023/04/07 05:17:19;;;;;;;24.85;11.68;;;;;;;6.70;64.47;100847.22;4932222;29;20046;-73
2023/04/07 05:19:47;;;;;;;30.10;11.77;;;;;;;6.76;64.07;100850.03;4916883;29;20395;-72
2023/04/07 05:22:24;;;;;;;25.42;11.25;;;;;;;6.79;63.72;100849.53;4944365;29;20044;-72
2023/04/07 05:24:52;;;;;;;20.08;11.75;;;;;;;6.79;63.54;100855.78;4935506;29;20052;-72
2023/04/07 05:27:20;;;;;;;18.17;10.65;;;;;;;6.72;62.98;100845.09;4951700;29;20052;-73
2023/04/07 05:29:52;;;;;;;23.65;11.30;;;;;;;6.87;62.72;100851.84;4952289;29;20047;-73
2023/04/07 05:32:27;;;;;;;27.45;11.38;;;;;;;7.03;61.73;100855.59;4932465;29;20075;-73
2023/04/07 05:34:56;;;;;;;19.92;11.10;;;;;;;7.16;61.54;100846.28;4932728;29;20055;-73
2023/04/07 05:37:29;;;;;;;20.55;10.68;;;;;;;7.32;60.24;100841.88;4936111;29;20075;-73
2023/04/07 05:40:01;;;;;;;18.83;10.52;;;;;;;7.52;60.89;100846.75;4932498;29;20040;-73
2023/04/07 05:42:28;;;;;;;21.98;11.25;;;;;;;7.74;58.41;100851.41;4930768;29;20486;-73
2023/04/07 05:44:57;;;;;;;17.20;9.95;;;;;;;7.88;58.54;100842.81;4936955;29;20083;-73
2023/04/07 05:47:26;;;;;;;20.73;10.70;;;;;;;8.11;58.37;100835.44;4920381;29;20044;-73
2023/04/07 05:49:54;;;;;;;19.17;9.88;;;;;;;8.27;55.31;100826.31;4935883;29;20044;-72
2023/04/07 05:52:22;;;;;;;23.02;11.82;;;;;;;8.63;53.83;100828.56;4935361;29;20056;-72
2023/04/07 05:54:59;;;;;;;18.20;10.48;;;;;;;9.07;52.29;100830.25;4935717;29;20056;-74
2023/04/07 05:57:30;;;;;;;15.57;9.35;;;;;;;9.06;52.08;100834.06;4918848;29;20054;-73
2023/04/07 06:00:00;;;;;;;22.13;10.57;;;;;;;9.18;52.39;100825.66;4935218;29;20060;-73
2023/04/07 06:02:30;;;;;;;21.90;10.15;;;;;;;9.39;51.76;100826.59;4936310;29;20048;-74
2023/04/07 06:04:59;;;;;;;21.70;10.27;;;;;;;9.73;50.31;100833.53;4935344;29;20071;-74
2023/04/07 06:07:27;;;;;;;18.33;9.85;;;;;;;9.88;49.98;100830.03;4935133;29;20052;-75
2023/04/07 06:09:54;;;;;;;18.83;11.15;;;;;;;9.87;49.52;100838.53;4934584;29;20054;-74
2023/04/07 06:12:22;;;;;;;25.27;10.38;;;;;;;9.91;49.98;100837.72;4935430;29;20055;-74
2023/04/07 06:14:52;;;;;;;19.70;10.00;;;;;;;10.00;49.14;100842.66;4938499;29;20051;-73
2023/04/07 06:17:22;;;;;;;21.35;9.52;;;;;;;10.12;50.06;100829.56;4933294;29;20055;-74
2023/04/07 06:19:50;;;;;;;21.08;9.88;;;;;;;10.04;49.08;100824.63;4936229;29;20047;-74
2023/04/07 06:22:18;;;;;;;18.08;10.50;;;;;;;10.04;48.86;100830.09;4935603;29;20051;-73
2023/04/07 06:24:45;;;;;;;20.10;10.18;;;;;;;10.49;48.23;100814.03;4935978;29;20071;-74
2023/04/07 06:27:13;;;;;;;19.40;10.50;;;;;;;10.79;47.75;100833.47;4934886;29;20059;-74
2023/04/07 06:29:41;;;;;;;21.33;10.70;;;;;;;10.89;46.38;100825.22;4935756;29;20051;-74
2023/04/07 06:32:09;;;;;;;29.52;11.02;;;;;;;10.60;47.67;100828.53;4931257;29;20071;-73
2023/04/07 06:34:37;;;;;;;23.55;9.60;;;;;;;10.94;45.46;100833.44;4915482;29;20495;-75
2023/04/07 06:37:05;;;;;;;19.80;9.30;;;;;;;11.45;45.26;100828.09;4933128;29;20506;-74
2023/04/07 06:39:33;;;;;;;19.50;9.75;;;;;;;11.53;44.56;100831.09;4935537;29;20048;-74
2023/04/07 06:42:01;;;;;;;18.83;10.02;;;;;;;11.66;44.55;100828.84;4935867;29;20052;-74
2023/04/07 06:44:35;;;;;;;16.77;9.07;;;;;;;11.73;44.99;100832.09;4932952;29;20830;-73
2023/04/07 06:47:03;;;;;;;15.88;9.30;;;;;;;11.80;42.94;100837.28;4935395;29;20394;-73
2023/04/07 06:49:31;;;;;;;16.35;8.77;;;;;;;12.25;41.82;100842.81;4934507;29;20059;-73
2023/04/07 06:51:59;;;;;;;18.15;9.00;;;;;;;12.41;40.56;100831.72;4935501;29;20056;-73
2023/04/07 06:54:26;;;;;;;15.65;8.55;;;;;;;13.04;39.83;100835.56;4934377;29;20055;-73
2023/04/07 06:56:56;;;;;;;19.20;8.82;;;;;;;12.90;38.62;100833.50;4933599;29;20407;-74
2023/04/07 06:59:24;;;;;;;17.10;8.60;;;;;;;13.07;38.49;100832.25;4935088;29;20048;-74
2023/04/07 07:01:51;;;;;;;20.05;8.55;;;;;;;13.40;37.09;100826.13;4935531;29;20051;-72
2023/04/07 07:04:19;;;;;;;15.43;9.18;;;;;;;13.61;38.16;100823.13;4934735;29;20055;-72
2023/04/07 07:06:48;;;;;;;16.35;8.88;;;;;;;13.61;36.91;100829.47;4935574;29;20047;-73
2023/04/07 07:09:16;;;;;;;16.02;8.80;;;;;;;14.19;37.18;100829.50;4934770;29;20394;-73
2023/04/07 07:11:43;;;;;;;19.38;9.52;;;;;;;13.98;35.68;100833.34;4933766;29;20047;-73
2023/04/07 07:14:11;;;;;;;13.77;8.40;;;;;;;13.29;35.10;100833.63;4933336;29;20055;-72
2023/04/07 07:16:40;;;;;;;17.80;9.68;;;;;;;13.17;36.00;100836.81;4917567;29;20063;-71
2023/04/07 07:19:08;;;;;;;16.65;9.18;;;;;;;13.27;35.27;100824.88;4933955;29;20051;-72
2023/04/07 07:21:36;;;;;;;15.70;9.15;;;;;;;13.26;36.00;100828.75;4934266;29;20059;-71
2023/04/07 07:24:04;;;;;;;20.20;10.07;;;;;;;13.46;35.98;100833.22;4934500;29;20067;-72
2023/04/07 07:26:32;;;;;;;17.83;10.18;;;;;;;13.72;35.92;100827.38;4934383;29;20052;-71
2023/04/07 07:29:00;;;;;;;19.55;10.05;;;;;;;13.42;35.68;100826.63;4934975;29;20058;-71
2023/04/07 07:31:28;;;;;;;19.58;9.38;;;;;;;13.62;34.81;100822.84;4934924;29;20402;-72
2023/04/07 07:33:56;;;;;;;15.23;9.35;;;;;;;14.26;35.14;100829.94;4935213;29;20043;-72
2023/04/07 07:36:25;;;;;;;16.70;9.15;;;;;;;13.90;35.62;100831.28;4934708;29;20067;-72
2023/04/07 07:38:53;;;;;;;18.65;9.63;;;;;;;13.86;35.34;100824.72;4933499;29;20055;-72
2023/04/07 07:41:21;;;;;;;17.63;9.70;;;;;;;13.77;35.43;100823.75;4933838;29;20050;-72
2023/04/07 07:43:48;;;;;;;16.23;9.32;;;;;;;14.24;35.52;100832.16;4934490;29;20395;-72
2023/04/07 07:46:16;;;;;;;19.85;9.65;;;;;;;14.00;35.08;100827.56;4934833;29;20620;-71
2023/04/07 07:48:45;;;;;;;15.75;9.48;;;;;;;13.79;34.91;100827.03;4934098;29;20309;-72
2023/04/07 07:51:13;;;;;;;20.00;9.77;;;;;;;13.89;33.89;100826.88;4934496;29;20054;-72
2023/04/07 07:53:41;;;;;;;16.30;9.30;;;;;;;14.30;34.06;100828.22;4933833;29;20055;-72
2023/04/07 07:56:09;;;;;;;21.35;9.18;;;;;;;14.20;34.09;100822.88;4932655;29;20390;-73
2023/04/07 07:58:37;;;;;;;17.20;9.07;;;;;;;14.08;33.78;100835.13;4932458;29;20081;-73
2023/04/07 08:01:11;;;;;;;17.67;9.57;;;;;;;14.19;33.11;100821.22;4935047;29;20050;-72
2023/04/07 08:03:40;;;;;;;19.40;10.95;;;;;;;14.85;34.36;100837.81;4934648;29;20059;-72
2023/04/07 08:06:12;;;;;;;18.38;9.52;;;;;;;15.32;33.19;100837.75;4934368;29;20052;-73
2023/04/07 08:08:41;;;;;;;19.20;10.10;;;;;;;15.40;32.20;100835.44;4934327;29;20055;-73
2023/04/07 08:11:11;;;;;;;17.45;9.55;;;;;;;15.66;31.96;100829.38;4932559;29;20052;-72
2023/04/07 08:13:44;;;;;;;20.92;10.70;;;;;;;15.46;33.11;100831.44;4933844;29;20056;-72
2023/04/07 08:16:13;;;;;;;17.63;9.23;;;;;;;15.34;33.52;100833.91;4917318;29;20407;-72
2023/04/07 08:18:41;;;;;;;17.42;9.88;;;;;;;15.45;33.38;100835.34;4933360;29;20066;-71
2023/04/07 08:21:08;;;;;;;16.33;9.13;;;;;;;15.49;33.38;100833.56;4933793;29;20059;-71
2023/04/07 08:23:36;;;;;;;16.40;9.40;;;;;;;16.10;32.51;100844.47;4933162;29;20056;-72
2023/04/07 08:26:04;;;;;;;19.55;10.15;;;;;;;16.41;31.92;100839.34;4934722;29;20060;-72
2023/04/07 08:28:32;;;;;;;19.42;9.15;;;;;;;15.99;31.56;100835.56;4933766;29;20043;-72
2023/04/07 08:31:00;;;;;;;18.50;9.75;;;;;;;15.44;32.00;100837.25;4932764;29;20486;-72
2023/04/07 08:33:28;;;;;;;15.35;8.82;;;;;;;15.71;31.14;100843.91;4932918;29;20048;-71
2023/04/07 08:35:56;;;;;;;19.85;9.90;;;;;;;15.71;32.79;100846.66;4934087;29;20060;-71
2023/04/07 08:38:24;;;;;;;17.33;9.48;;;;;;;15.70;33.77;100841.44;4933990;29;20519;-71
2023/04/07 08:41:00;;;;;;;21.17;10.05;;;;;;;16.06;33.31;100850.88;4933856;29;20383;-71
2023/04/07 08:43:28;;;;;;;22.20;12.23;;;;;;;15.70;33.82;100845.00;4932411;29;20067;-71
2023/04/07 08:45:57;;;;;;;21.27;10.73;;;;;;;15.87;32.78;100845.50;4931741;29;20055;-71
2023/04/07 08:48:32;;;;;;;20.85;10.13;;;;;;;15.58;33.51;100847.47;4931518;29;20406;-71
2023/04/07 08:51:05;;;;;;;19.75;10.20;;;;;;;15.38;34.69;100843.16;4931727;29;20054;-71
2023/04/07 08:53:51;;;;;;;22.58;11.52;;;;;;;15.98;33.85;100835.88;4931230;29;20495;-71
2023/04/07 08:56:22;;;;;;;21.40;10.20;;;;;;;15.87;34.04;100842.75;4932131;29;20059;-71
2023/04/07 08:58:51;;;;;;;24.13;10.52;;;;;;;16.22;33.35;100841.13;4930825;29;20055;-71
2023/04/07 09:01:20;;;;;;;20.40;10.13;;;;;;;15.78;32.99;100837.94;4918522;29;20474;-71
2023/04/07 09:03:48;;;;;;;22.58;11.07;;;;;;;15.70;32.45;100835.91;4935282;29;20050;-71
2023/04/07 09:06:17;;;;;;;21.80;11.20;;;;;;;14.98;34.04;100836.22;4934960;29;20054;-71
2023/04/07 09:08:45;;;;;;;20.25;10.70;;;;;;;15.50;35.02;100834.41;4935179;29;20059;-71
2023/04/07 09:11:13;;;;;;;24.15;11.30;;;;;;;15.27;33.35;100832.38;4934674;29;20059;-71
2023/04/07 09:13:41;;;;;;;22.63;11.15;;;;;;;16.45;32.38;100829.28;4918243;29;20410;-71
2023/04/07 09:16:09;;;;;;;20.35;10.02;;;;;;;16.39;32.30;100829.41;4936210;29;20533;-71
2023/04/07 09:18:37;;;;;;;19.85;10.30;;;;;;;16.50;32.43;100826.41;4936038;29;20043;-72
2023/04/07 09:21:06;;;;;;;22.67;11.30;;;;;;;16.55;33.30;100820.75;4935684;29;20082;-72
2023/04/07 09:23:37;;;;;;;21.50;11.25;;;;;;;17.29;31.23;100809.44;4933955;29;20498;-73
2023/04/07 09:26:16;;;;;;;19.20;11.25;;;;;;;16.60;32.15;100803.22;4935368;29;20059;-72
2023/04/07 09:28:46;;;;;;;21.17;11.43;;;;;;;16.49;32.91;100806.25;4934682;29;20052;-72
2023/04/07 09:31:14;;;;;;;23.67;11.27;;;;;;;16.58;33.14;100805.50;4936067;29;20051;-72
2023/04/07 09:33:43;;;;;;;26.98;12.32;;;;;;;15.98;33.88;100805.50;4946949;29;20058;-72
2023/04/07 09:36:11;;;;;;;22.48;11.77;;;;;;;16.46;32.38;100798.59;4935622;29;20418;-72
2023/04/07 09:38:40;;;;;;;22.00;11.75;;;;;;;16.11;32.89;100799.16;4935070;29;20052;-72
2023/04/07 09:41:08;;;;;;;21.70;10.95;;;;;;;16.46;31.90;100804.13;4948398;29;20067;-73
2023/04/07 09:43:39;;;;;;;22.38;11.32;;;;;;;16.82;31.80;100798.78;4954851;29;20494;-73
2023/04/07 09:46:11;;;;;;;20.98;11.65;;;;;;;17.29;33.52;100793.66;4955389;29;20055;-73
2023/04/07 09:48:40;;;;;;;21.88;11.10;;;;;;;17.59;32.00;100793.06;4955835;29;20055;-72
2023/04/07 09:51:10;;;;;;;23.55;11.90;;;;;;;18.27;29.35;100794.59;4931904;29;20051;-71
2023/04/07 09:53:47;;;;;;;23.00;12.35;;;;;;;18.05;30.19;100790.03;4935662;29;20430;-72
2023/04/07 09:56:18;;;;;;;27.67;12.27;;;;;;;16.99;30.67;100792.53;4934880;29;20467;-71
2023/04/07 09:58:47;;;;;;;21.13;12.10;;;;;;;17.73;31.53;100793.75;4935692;29;20063;-72
2023/04/07 10:01:16;;;;;;;23.02;12.02;;;;;;;17.70;31.52;100786.09;4929229;29;20055;-72
2023/04/07 10:03:45;;;;;;;23.45;11.50;;;;;;;18.02;31.40;100783.19;4928826;29;20051;-72
2023/04/07 10:06:15;;;;;;;22.27;11.35;;;;;;;17.84;31.15;100785.94;4935084;29;20479;-72
2023/04/07 10:08:43;;;;;;;20.48;10.98;;;;;;;17.85;30.55;100782.03;4934486;29;20052;-73
2023/04/07 10:11:11;;;;;;;22.00;11.02;;;;;;;18.13;30.41;100776.19;4934578;29;20052;-72
2023/04/07 10:13:40;;;;;;;21.20;12.88;;;;;;;17.42;30.08;100780.03;4943956;29;20048;-73
2023/04/07 10:16:08;;;;;;;22.92;10.57;;;;;;;17.08;30.23;100773.25;4918026;29;20422;-74
2023/04/07 10:18:40;;;;;;;23.73;11.60;;;;;;;17.60;29.58;100767.03;4934755;29;20063;-72
2023/04/07 10:21:13;;;;;;;19.75;10.23;;;;;;;17.45;30.00;100780.19;4936085;29;20040;-71
2023/04/07 10:23:53;;;;;;;21.95;11.65;;;;;;;16.96;30.76;100768.31;4934335;29;20044;-71
2023/04/07 10:26:25;;;;;;;22.58;10.95;;;;;;;17.60;28.80;100764.28;4935354;29;20048;-71
2023/04/07 10:29:00;;;;;;;19.10;10.52;;;;;;;17.56;30.43;100766.06;4934849;29;20055;-72
2023/04/07 10:31:28;;;;;;;21.33;11.38;;;;;;;17.13;29.67;100776.69;4934940;29;20051;-72
2023/04/07 10:33:56;;;;;;;19.40;11.20;;;;;;;16.53;31.18;100762.25;4935970;29;20043;-71
2023/04/07 10:36:24;;;;;;;20.50;10.82;;;;;;;17.07;29.40;100758.63;4936071;29;20047;-73
2023/04/07 10:39:07;;;;;;;18.90;10.73;;;;;;;17.09;28.79;100758.28;4935441;29;20051;-73
2023/04/07 10:41:39;;;;;;;21.98;11.18;;;;;;;17.32;28.76;100762.56;4935542;29;20414;-73
2023/04/07 10:44:42;;;;;;;22.75;11.10;;;;;;;17.10;29.39;100760.72;4934804;29;20055;-71
2023/04/07 10:47:10;;;;;;;19.27;10.55;;;;;;;17.17;29.74;100755.53;4933752;29;20371;-72
2023/04/07 10:49:37;;;;;;;19.95;10.57;;;;;;;17.49;28.51;100757.44;4932738;29;20501;-72
2023/04/07 10:52:11;;;;;;;20.65;10.75;;;;;;;17.22;29.09;100757.38;4929476;29;20047;-72
2023/04/07 10:54:40;;;;;;;19.30;10.05;;;;;;;16.88;28.72;100748.59;4933165;29;20044;-70
2023/04/07 10:57:15;;;;;;;18.98;10.85;;;;;;;16.54;29.87;100744.53;4932566;29;20060;-70
2023/04/07 11:00:11;;;;;;;20.27;11.43;;;;;;;16.87;29.46;100748.91;4934268;29;20525;-71
2023/04/07 11:02:39;;;;;;;18.83;10.40;;;;;;;17.04;29.25;100751.78;4931942;29;20369;-71
2023/04/07 11:05:21;;;;;;;21.48;11.00;;;;;;;16.95;29.24;100750.09;4932634;29;20047;-71
2023/04/07 11:07:53;;;;;;;23.38;11.02;;;;;;;16.88;30.12;100742.25;4930390;29;20054;-72
2023/04/07 11:10:22;;;;;;;16.83;9.85;;;;;;;16.76;30.31;100738.13;4932649;29;20066;-71
2023/04/07 11:13:06;;;;;;;23.67;11.27;;;;;;;17.10;30.80;100737.81;4932372;29;20054;-71
2023/04/07 11:15:36;;;;;;;21.52;10.57;;;;;;;16.75;30.71;100738.44;4915836;29;20055;-71
2023/04/07 11:18:11;;;;;;;18.92;10.60;;;;;;;16.70;31.13;100738.56;4932582;29;20055;-71
2023/04/07 11:20:45;;;;;;;19.80;11.57;;;;;;;16.67;30.73;100748.31;4931152;29;20043;-71
2023/04/07 11:23:15;;;;;;;18.88;11.10;;;;;;;16.72;30.53;100733.56;4932236;29;20047;-71
2023/04/07 11:25:46;;;;;;;20.27;11.43;;;;;;;16.70;31.22;100730.28;4932835;29;20051;-72
2023/04/07 11:28:14;;;;;;;25.25;11.52;;;;;;;17.14;29.22;100730.47;4915515;29;20047;-73
2023/04/07 11:30:50;;;;;;;20.20;10.85;;;;;;;17.88;29.47;100732.72;4931651;29;20055;-72